Time;durP1;ratioP1;P1;durP2;ratioP2;P2;SDS_P1;SDS_P2;PMS_P1;PMS_P2;Temp;Humidity;BMP_temperature;BMP_pressure;BME280_temperature;BME280_humidity;BME280_pressure;Samples;Min_cycle;Max_cycle;Signal;HPM_P1;HPM_P2
2021/04/27 00:03:19;;;;;;;2.22;2.00;;;;;;;9.54;33.42;99796.78;10196636;28;20051;-69
2021/04/27 00:08:20;;;;;;;3.15;1.75;;;;;;;9.51;34.08;99797.88;10195224;28;20177;-68
2021/04/27 00:13:21;;;;;;;1.95;1.80;;;;;;;9.53;33.85;99798.59;10209942;28;20044;-69
2021/04/27 00:18:21;;;;;;;2.42;2.10;;;;;;;9.58;33.69;99802.66;10199870;28;20126;-69
2021/04/27 00:23:23;;;;;;;2.30;1.83;;;;;;;9.35;33.43;99777.06;10196002;28;20110;-69
2021/04/27 00:28:24;;;;;;;3.15;2.22;;;;;;;9.47;33.71;99801.78;10195446;28;20060;-69
2021/04/27 00:33:25;;;;;;;3.83;1.77;;;;;;;9.52;33.65;99799.56;10198762;28;20753;-70
2021/04/27 00:38:26;;;;;;;2.85;1.73;;;;;;;9.44;34.14;99794.03;10196163;28;20156;-69
2021/04/27 00:43:27;;;;;;;2.60;1.65;;;;;;;9.33;33.59;99778.16;10191143;28;20054;-68
2021/04/27 00:48:28;;;;;;;3.90;2.10;;;;;;;9.20;34.12;99768.56;10207030;28;20059;-69
2021/04/27 00:53:30;;;;;;;4.20;1.98;;;;;;;9.28;34.13;99769.75;10192463;28;20134;-69
2021/04/27 00:58:32;;;;;;;2.75;2.33;;;;;;;9.32;34.20;99771.16;10193660;28;20081;-69
2021/04/27 01:03:33;;;;;;;3.25;1.98;;;;;;;9.22;33.90;99764.91;10278319;23;20412;-71
2021/04/27 01:08:49;;;;;;;3.38;1.75;;;;;;;9.26;34.25;99776.97;10308626;28;20057;-71
2021/04/27 01:14:03;;;;;;;3.28;2.22;;;;;;;9.15;34.06;99760.09;10300593;28;20046;-70
2021/04/27 01:19:07;;;;;;;2.60;1.70;;;;;;;9.17;34.23;99758.19;10257338;28;20129;-71
2021/04/27 01:24:22;;;;;;;1.70;1.60;;;;;;;9.04;34.58;99768.13;10263679;28;20082;-70
2021/04/27 01:29:27;;;;;;;2.88;1.90;;;;;;;8.98;34.66;99758.84;10260064;28;20120;-69
2021/04/27 01:34:34;;;;;;;2.65;1.40;;;;;;;9.03;34.32;99756.63;10261896;28;20113;-71
2021/04/27 01:39:36;;;;;;;2.75;1.77;;;;;;;8.99;33.94;99751.72;10277648;28;20054;-70
2021/04/27 01:44:39;;;;;;;3.70;2.00;;;;;;;8.95;34.22;99748.47;10261134;28;20737;-71
2021/04/27 01:49:42;;;;;;;2.10;1.63;;;;;;;8.99;34.40;99747.25;10257626;28;20501;-71
2021/04/27 01:54:43;;;;;;;3.35;2.10;;;;;;;9.00;34.12;99751.59;10288357;28;20043;-71
2021/04/27 01:59:44;;;;;;;3.58;1.70;;;;;;;8.93;34.23;99750.44;10293495;28;20043;-71
2021/04/27 02:04:45;;;;;;;2.78;2.25;;;;;;;8.88;34.68;99738.50;10270177;28;20055;-70
2021/04/27 02:09:46;;;;;;;2.05;1.73;;;;;;;8.87;34.46;99740.28;10263394;28;20046;-71
2021/04/27 02:14:47;;;;;;;2.97;1.90;;;;;;;8.83;34.65;99734.38;10262484;28;20101;-71
2021/04/27 02:19:48;;;;;;;3.33;1.67;;;;;;;8.84;34.88;99735.22;10264522;28;20050;-69
2021/04/27 02:24:50;;;;;;;3.25;1.60;;;;;;;8.80;34.79;99739.13;10265222;28;20046;-70
2021/04/27 02:29:55;;;;;;;2.33;1.40;;;;;;;8.73;34.64;99727.31;10269607;28;20810;-70
2021/04/27 02:34:56;;;;;;;2.88;1.60;;;;;;;8.70;34.62;99728.41;10272209;28;20050;-73
2021/04/27 02:39:57;;;;;;;2.28;1.58;;;;;;;8.64;34.71;99729.72;10300369;28;20062;-71
2021/04/27 02:44:58;;;;;;;2.15;1.30;;;;;;;8.60;34.78;99716.84;10263096;28;20054;-71
2021/04/27 02:50:00;;;;;;;4.85;1.70;;;;;;;8.62;34.89;99714.91;10266860;28;20109;-70
2021/04/27 02:55:00;;;;;;;2.13;1.90;;;;;;;8.60;34.90;99709.75;10265530;28;20046;-70
2021/04/27 03:00:04;;;;;;;2.72;1.50;;;;;;;8.60;34.80;99711.53;10251368;28;20047;-71
2021/04/27 03:05:06;;;;;;;2.83;2.20;;;;;;;8.59;34.81;99704.56;10266903;28;20051;-70
2021/04/27 03:10:08;;;;;;;2.55;1.48;;;;;;;8.60;34.74;99701.78;10262837;28;20050;-72
2021/04/27 03:15:10;;;;;;;2.83;1.55;;;;;;;8.59;34.89;99708.03;10255425;28;20109;-69
2021/04/27 03:20:13;;;;;;;3.45;2.00;;;;;;;8.53;34.98;99715.63;10270383;28;20070;-71
2021/04/27 03:25:14;;;;;;;4.03;1.80;;;;;;;8.48;35.20;99713.34;10258273;28;21295;-70
2021/04/27 03:30:16;;;;;;;5.63;2.20;;;;;;;8.41;35.49;99706.84;10270779;28;20051;-70
2021/04/27 03:35:17;;;;;;;2.13;1.67;;;;;;;8.30;35.99;99689.13;10270630;28;20044;-71
2021/04/27 03:40:18;;;;;;;3.10;1.80;;;;;;;8.22;36.18;99691.56;10258897;28;20510;-70
2021/04/27 03:45:22;;;;;;;2.75;2.10;;;;;;;8.12;36.42;99684.34;10251471;28;20513;-70
2021/04/27 03:50:24;;;;;;;3.37;2.10;;;;;;;8.07;36.38;99678.53;10259591;28;20129;-70
2021/04/27 03:55:25;;;;;;;3.30;1.50;;;;;;;8.13;36.12;99688.66;10277248;28;20054;-70
2021/04/27 04:00:26;;;;;;;2.35;2.15;;;;;;;8.08;36.74;99684.72;10253576;28;20057;-70
2021/04/27 04:05:27;;;;;;;3.42;2.15;;;;;;;8.01;37.43;99684.34;10259743;28;20520;-70
2021/04/27 04:10:28;;;;;;;2.15;1.92;;;;;;;7.95;37.57;99692.78;10262644;28;20050;-71
2021/04/27 04:15:29;;;;;;;3.75;2.50;;;;;;;7.95;37.91;99695.41;10269856;28;20417;-70
2021/04/27 04:20:30;;;;;;;2.75;2.10;;;;;;;7.87;38.14;99693.38;10270386;28;20121;-70
2021/04/27 04:25:31;;;;;;;2.58;2.38;;;;;;;7.82;38.82;99690.25;10268699;28;20070;-69
2021/04/27 04:30:33;;;;;;;4.13;2.70;;;;;;;7.74;38.94;99690.81;10260740;28;20082;-69
2021/04/27 04:35:34;;;;;;;2.85;2.47;;;;;;;7.75;38.72;99695.16;10281695;28;20058;-70
2021/04/27 04:40:36;;;;;;;3.13;2.45;;;;;;;7.74;38.46;99696.13;10274645;28;20067;-72
2021/04/27 04:45:37;;;;;;;3.00;2.25;;;;;;;7.79;38.39;99701.94;10263049;28;20054;-71
2021/04/27 04:50:40;;;;;;;4.68;2.25;;;;;;;7.77;38.91;99695.03;10271784;28;20138;-73
2021/04/27 04:55:41;;;;;;;3.05;2.67;;;;;;;7.70;38.54;99680.59;10273183;28;20043;-71
2021/04/27 05:00:41;;;;;;;3.60;2.65;;;;;;;7.80;38.79;99694.81;10263092;28;20074;-68
2021/04/27 05:05:43;;;;;;;4.45;2.67;;;;;;;7.82;38.61;99694.69;10267591;28;20471;-71
2021/04/27 05:10:44;;;;;;;2.50;2.30;;;;;;;7.97;37.93;99698.78;10292704;28;20046;-71
2021/04/27 05:15:45;;;;;;;3.92;3.05;;;;;;;8.09;37.71;99689.03;10258749;28;20059;-71
2021/04/27 05:20:47;;;;;;;3.13;2.20;;;;;;;8.23;37.57;99701.22;10259813;28;20053;-71
2021/04/27 05:25:49;;;;;;;3.85;2.17;;;;;;;8.35;37.47;99689.63;10261928;28;20748;-70
2021/04/27 05:30:50;;;;;;;3.75;2.22;;;;;;;8.57;37.10;99702.03;10256811;28;20097;-71
2021/04/27 05:35:51;;;;;;;4.88;2.65;;;;;;;8.52;36.53;99692.75;10255460;28;20051;-70
2021/04/27 05:40:52;;;;;;;3.10;2.20;;;;;;;8.64;36.30;99697.06;10292867;28;20058;-71
2021/04/27 05:45:53;;;;;;;2.83;2.10;;;;;;;8.93;36.47;99699.13;10271868;28;20461;-71
2021/04/27 05:50:54;;;;;;;3.50;2.50;;;;;;;8.95;36.10;99695.38;10261523;28;20055;-70
2021/04/27 05:55:55;;;;;;;2.40;2.00;;;;;;;9.18;35.44;99696.13;10270842;28;20082;-71
2021/04/27 06:00:56;;;;;;;3.47;2.13;;;;;;;9.39;35.41;99711.22;10270431;28;20421;-71
2021/04/27 06:06:06;;;;;;;2.20;2.00;;;;;;;9.65;37.93;99694.88;10266805;28;20039;-72
2021/04/27 06:11:07;;;;;;;4.78;2.20;;;;;;;9.98;34.95;99698.28;10245875;28;20130;-72
2021/04/27 06:16:09;;;;;;;3.95;1.80;;;;;;;9.85;34.35;99682.56;10261856;28;20519;-72
2021/04/27 06:21:10;;;;;;;2.70;2.00;;;;;;;10.05;34.50;99689.63;10245751;28;20117;-72
2021/04/27 06:26:11;;;;;;;3.63;1.70;;;;;;;10.18;34.18;99675.28;10251874;28;20098;-72
2021/04/27 06:31:12;;;;;;;2.95;1.90;;;;;;;10.16;33.57;99678.03;10268332;28;20137;-72
2021/04/27 06:36:15;;;;;;;3.90;2.40;;;;;;;10.12;33.45;99683.75;10265951;28;20042;-73
2021/04/27 06:41:36;;;;;;;3.90;1.70;;;;;;;10.18;33.86;99673.44;10248265;28;20564;-72
2021/04/27 06:46:37;;;;;;;6.93;4.55;;;;;;;10.33;33.16;99689.00;10256991;28;20175;-72
2021/04/27 06:51:38;;;;;;;3.40;1.83;;;;;;;10.53;32.62;99682.78;10272339;28;20058;-72
2021/04/27 06:56:40;;;;;;;2.83;2.05;;;;;;;10.64;32.82;99673.00;10265297;28;20050;-72
2021/04/27 07:02:04;;;;;;;2.78;1.88;;;;;;;10.96;32.78;99684.25;10264173;28;20049;-72
2021/04/27 07:07:08;;;;;;;5.22;2.10;;;;;;;10.94;32.47;99680.91;10262060;28;20084;-72
2021/04/27 07:12:10;;;;;;;2.33;2.13;;;;;;;10.99;33.12;99676.94;10260211;28;20114;-71
2021/04/27 07:17:11;;;;;;;2.90;1.50;;;;;;;11.27;32.21;99670.78;10272821;28;20582;-71
2021/04/27 07:22:12;;;;;;;3.95;1.75;;;;;;;11.55;31.75;99656.69;10270102;28;20432;-72
2021/04/27 07:27:14;;;;;;;3.08;1.42;;;;;;;11.69;32.19;99653.56;10266152;28;20114;-72
2021/04/27 07:32:15;;;;;;;4.70;1.98;;;;;;;11.67;31.88;99663.53;10260540;28;20102;-73
2021/04/27 07:37:17;;;;;;;9.32;2.10;;;;;;;11.90;31.66;99650.66;10299452;28;20481;-71
2021/04/27 07:42:18;;;;;;;7.88;2.35;;;;;;;11.91;31.83;99644.34;10270895;28;20373;-71
2021/04/27 07:47:19;;;;;;;3.25;2.15;;;;;;;11.95;30.80;99647.59;10273459;28;20062;-71
2021/04/27 07:52:21;;;;;;;4.65;1.80;;;;;;;12.10;31.33;99646.13;10271015;28;20154;-71
2021/04/27 07:57:22;;;;;;;2.63;1.77;;;;;;;12.37;30.86;99641.78;10273686;28;20129;-71
2021/04/27 08:02:23;;;;;;;6.05;4.00;;;;;;;12.61;30.03;99627.84;10278074;28;20047;-73
2021/04/27 08:07:24;;;;;;;2.97;2.15;;;;;;;12.79;29.24;99646.53;10270852;28;20090;-72
2021/04/27 08:12:25;;;;;;;4.63;2.13;;;;;;;13.14;28.26;99634.13;10280484;28;20058;-73
2021/04/27 08:17:27;;;;;;;4.45;2.72;;;;;;;13.35;28.22;99628.47;10264216;28;20054;-72
2021/04/27 08:22:32;;;;;;;5.43;2.08;;;;;;;13.65;27.91;99631.66;10266971;23;20062;-69
2021/04/27 08:27:33;;;;;;;2.42;1.70;;;;;;;13.81;27.31;99636.28;10326821;28;20046;-69
2021/04/27 08:32:34;;;;;;;4.18;3.08;;;;;;;14.00;27.52;99612.94;10315360;28;20121;-68
2021/04/27 08:37:36;;;;;;;3.63;2.40;;;;;;;13.93;27.54;99618.06;10315570;28;20050;-69
2021/04/27 08:42:38;;;;;;;2.50;1.95;;;;;;;14.09;27.53;99620.81;10327985;28;20043;-68
2021/04/27 08:47:40;;;;;;;3.85;2.22;;;;;;;14.32;27.08;99623.75;10320527;28;20564;-68
2021/04/27 08:52:42;;;;;;;3.60;2.38;;;;;;;14.81;26.89;99614.97;10327441;28;20062;-69
2021/04/27 08:57:44;;;;;;;2.97;1.80;;;;;;;15.24;26.40;99617.50;10323933;28;20053;-69
2021/04/27 09:02:53;;;;;;;3.00;1.92;;;;;;;15.38;26.05;99598.00;10330155;28;20512;-69
2021/04/27 09:07:56;;;;;;;6.22;2.33;;;;;;;15.16;25.93;99602.25;10331095;28;20201;-68
2021/04/27 09:13:01;;;;;;;3.28;2.30;;;;;;;15.49;25.79;99602.22;10321325;28;20129;-69
2021/04/27 09:18:41;;;;;;;3.97;2.70;;;;;;;15.98;24.85;99587.78;10323844;28;20045;-69
2021/04/27 09:23:44;;;;;;;3.55;2.40;;;;;;;16.25;25.45;99581.09;10162133;29;20056;-68
2021/04/27 09:28:57;;;;;;;6.75;2.60;;;;;;;16.64;24.18;99567.78;10277386;28;20508;-68
2021/04/27 09:34:27;;;;;;;2.53;1.80;;;;;;;16.44;24.87;99577.13;10343991;28;20051;-68
2021/04/27 09:39:40;;;;;;;4.07;2.50;;;;;;;16.98;23.67;99572.72;10311756;28;20058;-68
2021/04/27 09:44:53;;;;;;;3.80;2.50;;;;;;;17.24;23.96;99563.41;10317016;28;20127;-68
2021/04/27 09:50:05;;;;;;;5.68;3.10;;;;;;;17.55;23.32;99557.00;10318398;28;20042;-68
2021/04/27 09:55:12;;;;;;;3.95;3.08;;;;;;;17.66;23.53;99529.63;10311048;28;20050;-68
2021/04/27 10:00:27;;;;;;;3.67;3.22;;;;;;;18.28;22.49;99525.59;10319174;28;20456;-68
2021/04/27 10:05:29;;;;;;;3.20;2.90;;;;;;;18.56;23.02;99524.84;10315190;28;20398;-67
2021/04/27 10:10:32;;;;;;;4.00;3.17;;;;;;;19.28;21.45;99514.84;10305567;28;20043;-68
2021/04/27 10:15:33;;;;;;;3.38;2.70;;;;;;;19.53;21.29;99522.44;10323745;28;20073;-67
2021/04/27 10:20:34;;;;;;;2.58;2.33;;;;;;;19.88;20.81;99520.56;10315504;28;20076;-69
2021/04/27 10:25:36;;;;;;;3.70;2.92;;;;;;;23.47;16.87;99501.59;10309453;28;20145;-70
2021/04/27 10:30:42;;;;;;;4.68;2.78;;;;;;;27.21;13.99;99498.41;10317608;28;20534;-69
2021/04/27 10:36:01;;;;;;;5.40;3.53;;;;;;;24.76;15.10;99502.38;10315563;28;20109;-69
2021/04/27 10:41:12;;;;;;;4.05;2.70;;;;;;;22.21;18.26;99485.34;10311034;28;20157;-67
2021/04/27 10:46:19;;;;;;;4.18;2.80;;;;;;;22.20;18.32;99483.66;10317392;28;20050;-68
2021/04/27 10:51:23;;;;;;;4.20;3.25;;;;;;;23.11;16.79;99473.38;10312038;28;20113;-69
2021/04/27 10:56:40;;;;;;;4.82;3.10;;;;;;;24.78;15.58;99465.69;10315031;28;20080;-69
2021/04/27 11:01:42;;;;;;;3.25;2.85;;;;;;;26.18;14.42;99463.97;10323557;28;20062;-68
2021/04/27 11:06:50;;;;;;;3.92;3.22;;;;;;;26.65;13.44;99455.50;10321293;28;20058;-68
2021/04/27 11:11:51;;;;;;;3.88;2.83;;;;;;;26.20;14.18;99437.31;10321755;28;20050;-69
2021/04/27 11:16:54;;;;;;;6.53;3.10;;;;;;;26.32;13.29;99443.50;10320693;28;20052;-68
2021/04/27 11:22:19;;;;;;;5.97;3.58;;;;;;;28.82;11.85;99437.75;10313111;28;20046;-68
2021/04/27 11:27:33;;;;;;;4.63;3.20;;;;;;;31.26;10.70;99432.44;10312886;28;20412;-69
2021/04/27 11:32:46;;;;;;;3.58;3.00;;;;;;;28.96;11.79;99421.69;10317076;28;20046;-70
2021/04/27 11:37:56;;;;;;;4.38;2.58;;;;;;;27.28;14.01;99406.16;10323463;28;20054;-68
2021/04/27 11:43:00;;;;;;;3.42;3.13;;;;;;;27.04;13.21;99409.13;10319389;28;20050;-69
2021/04/27 11:48:01;;;;;;;3.45;2.72;;;;;;;26.44;13.25;99399.78;10317639;28;20050;-69
2021/04/27 11:53:05;;;;;;;3.65;2.78;;;;;;;25.44;14.98;99397.44;10318034;28;20047;-69
2021/04/27 11:58:07;;;;;;;2.83;2.53;;;;;;;25.09;14.13;99398.34;10317821;28;20485;-69
2021/04/27 12:03:21;;;;;;;3.58;2.15;;;;;;;25.02;13.91;99395.72;10315395;28;20053;-70
2021/04/27 12:08:33;;;;;;;3.33;2.42;;;;;;;24.53;13.80;99397.88;10309244;28;20522;-69
2021/04/27 12:13:34;;;;;;;2.95;2.65;;;;;;;24.12;15.18;99369.69;10313192;28;20128;-69
2021/04/27 12:18:46;;;;;;;4.95;2.58;;;;;;;24.12;14.85;99369.69;10326495;28;20109;-69
2021/04/27 12:24:04;;;;;;;4.20;3.10;;;;;;;23.92;15.34;99370.03;10322389;28;20121;-69
2021/04/27 12:29:06;;;;;;;3.83;3.28;;;;;;;23.47;15.87;99352.25;10317944;28;20043;-69
2021/04/27 12:34:13;;;;;;;2.33;2.13;;;;;;;23.10;17.09;99352.28;10316525;28;20062;-69
2021/04/27 12:39:35;;;;;;;4.53;2.85;;;;;;;22.84;16.91;99339.84;10320380;28;20417;-69
2021/04/27 12:44:41;;;;;;;5.35;2.72;;;;;;;22.93;16.88;99335.78;10325197;28;20073;-69
2021/04/27 12:49:42;;;;;;;3.90;2.90;;;;;;;22.83;16.94;99325.44;10320407;28;20116;-69
2021/04/27 12:54:43;;;;;;;4.78;3.17;;;;;;;23.14;16.73;99329.06;10319459;28;20128;-68
2021/04/27 12:59:46;;;;;;;5.30;3.25;;;;;;;22.78;16.57;99317.16;10323854;28;20189;-68
2021/04/27 13:04:52;;;;;;;4.82;3.30;;;;;;;21.96;16.65;99271.25;10344037;28;20067;-71
2021/04/27 13:09:55;;;;;;;2.70;2.40;;;;;;;22.15;17.10;99308.16;10337006;28;20042;-69
2021/04/27 13:14:59;;;;;;;4.25;3.15;;;;;;;22.12;16.89;99305.91;10333276;28;20561;-69
2021/04/27 13:20:19;;;;;;;4.00;2.75;;;;;;;21.85;17.22;99289.06;10316836;28;20054;-69
2021/04/27 13:25:36;;;;;;;3.65;3.05;;;;;;;21.56;17.79;99279.69;10321815;28;20096;-69
2021/04/27 13:30:47;;;;;;;4.10;3.22;;;;;;;21.30;17.57;99284.19;10298163;28;21544;-68
2021/04/27 13:35:53;;;;;;;6.18;3.53;;;;;;;21.30;18.60;99278.78;10321555;28;20051;-69
2021/04/27 13:40:56;;;;;;;6.22;3.15;;;;;;;21.24;18.07;99264.22;10313737;28;20047;-67
2021/04/27 13:45:57;;;;;;;;;;;;;;;20.76;18.57;99261.97;10319573;28;20042;-68
2021/04/27 13:51:02;;;;;;;3.67;3.38;;;;;;;20.77;18.51;99252.84;10318512;28;20005;-68
2021/04/27 13:56:06;;;;;;;3.63;3.20;;;;;;;20.63;18.53;99249.34;10326149;28;20485;-68
2021/04/27 14:01:07;;;;;;;4.97;3.10;;;;;;;20.51;18.80;99243.75;10317820;28;20050;-68
2021/04/27 14:06:08;;;;;;;3.30;2.90;;;;;;;20.35;18.79;99230.69;10321872;28;20054;-70
2021/04/27 14:11:10;;;;;;;3.97;3.17;;;;;;;20.01;19.02;99217.28;10324494;28;20078;-68
2021/04/27 14:16:11;;;;;;;4.25;2.78;;;;;;;20.08;18.94;99214.56;10349228;28;20079;-69
2021/04/27 14:21:13;;;;;;;3.38;2.83;;;;;;;19.87;18.78;99221.84;10326582;28;20066;-69
2021/04/27 14:26:14;;;;;;;5.80;3.10;;;;;;;19.69;19.16;99203.56;10307489;23;20054;-72
2021/04/27 14:31:15;;;;;;;4.70;2.70;;;;;;;19.52;19.00;99213.94;10340418;28;20125;-72
2021/04/27 14:36:16;;;;;;;3.95;3.38;;;;;;;19.40;19.50;99200.22;10321112;28;20046;-73
2021/04/27 14:41:17;;;;;;;3.25;2.95;;;;;;;19.22;19.82;99208.13;10310632;28;20141;-73
2021/04/27 14:46:18;;;;;;;3.65;2.78;;;;;;;18.83;20.06;99194.31;10312826;28;20062;-73
2021/04/27 14:51:19;;;;;;;3.85;3.45;;;;;;;18.69;20.33;99188.03;10307029;28;20073;-73
2021/04/27 14:56:20;;;;;;;3.50;2.60;;;;;;;18.85;20.29;99186.00;10313233;28;20662;-74
2021/04/27 15:01:21;;;;;;;4.72;3.03;;;;;;;18.88;19.93;99174.84;10324893;28;20042;-74
2021/04/27 15:06:23;;;;;;;3.72;2.97;;;;;;;18.92;20.12;99181.50;10324615;28;20054;-73
2021/04/27 15:11:24;;;;;;;3.28;2.90;;;;;;;18.79;19.87;99176.88;10310816;28;20725;-73
2021/04/27 15:16:26;;;;;;;3.33;2.85;;;;;;;18.76;20.22;99162.97;10313714;28;20191;-71
2021/04/27 15:21:27;;;;;;;3.17;2.75;;;;;;;18.84;20.14;99173.56;10310187;28;21967;-72
2021/04/27 15:26:29;;;;;;;4.22;3.10;;;;;;;18.78;20.40;99163.59;10305417;28;20050;-73
2021/04/27 15:31:32;;;;;;;5.95;2.78;;;;;;;18.50;20.18;99161.84;10308513;28;20065;-72
2021/04/27 15:36:33;;;;;;;2.60;2.40;;;;;;;18.46;20.24;99149.81;10329825;28;20051;-74
2021/04/27 15:41:34;;;;;;;4.80;2.40;;;;;;;18.45;20.48;99153.53;10313677;28;20046;-73
2021/04/27 15:46:37;;;;;;;3.88;3.22;;;;;;;18.37;19.91;99147.31;10321717;28;20050;-73
2021/04/27 15:51:38;;;;;;;3.63;2.58;;;;;;;18.36;20.30;99140.25;10309884;28;20205;-73
2021/04/27 15:56:39;;;;;;;4.47;2.38;;;;;;;18.36;20.47;99150.22;10317102;28;20062;-72
2021/04/27 16:01:40;;;;;;;3.83;2.63;;;;;;;18.34;20.23;99136.91;10316541;28;20054;-72
2021/04/27 16:06:42;;;;;;;3.72;2.58;;;;;;;18.17;20.67;99130.22;10318701;28;20048;-72
2021/04/27 16:11:43;;;;;;;2.97;2.13;;;;;;;18.22;20.54;99127.75;10314779;28;20133;-73
2021/04/27 16:16:44;;;;;;;2.75;2.35;;;;;;;18.17;20.74;99116.75;10318713;28;20074;-72
2021/04/27 16:21:45;;;;;;;3.13;2.15;;;;;;;18.22;20.49;99116.16;10330528;28;20046;-74
2021/04/27 16:26:46;;;;;;;3.95;2.67;;;;;;;18.17;20.89;99119.47;10315682;28;20046;-74
2021/04/27 16:31:47;;;;;;;3.55;2.83;;;;;;;18.19;21.10;99112.00;10318608;28;20065;-71
2021/04/27 16:36:48;;;;;;;4.63;2.20;;;;;;;18.13;20.62;99118.19;10313160;28;20086;-71
2021/04/27 16:41:49;;;;;;;2.13;1.92;;;;;;;17.95;21.04;99108.78;10327728;28;20133;-71
2021/04/27 16:46:51;;;;;;;3.88;2.08;;;;;;;18.01;21.40;99099.06;10325620;28;20588;-72
2021/04/27 16:51:52;;;;;;;2.10;1.90;;;;;;;18.04;21.61;99116.69;10313686;28;20425;-72
2021/04/27 16:56:54;;;;;;;4.25;2.30;;;;;;;17.94;21.82;99104.44;10325575;28;20054;-72
2021/04/27 17:01:55;;;;;;;3.10;2.35;;;;;;;17.91;21.57;99098.59;10312441;28;20824;-72
2021/04/27 17:06:57;;;;;;;3.47;2.53;;;;;;;17.89;21.56;99106.88;10327935;28;20050;-72
2021/04/27 17:11:59;;;;;;;2.90;2.10;;;;;;;17.75;21.56;99094.38;10307753;28;20126;-72
2021/04/27 17:17:00;;;;;;;4.28;2.17;;;;;;;17.72;21.63;99102.84;10318333;28;20057;-72
2021/04/27 17:22:01;;;;;;;3.13;2.03;;;;;;;17.57;21.79;99098.38;10314853;28;22729;-72
2021/04/27 17:27:03;;;;;;;4.05;1.80;;;;;;;17.52;22.12;99100.00;10314840;28;20050;-72
2021/04/27 17:32:04;;;;;;;4.15;2.20;;;;;;;17.43;22.01;99112.78;10325440;28;20050;-73
2021/04/27 17:37:05;;;;;;;4.13;2.00;;;;;;;17.36;22.48;99111.91;10323853;28;20054;-71
2021/04/27 17:42:06;;;;;;;5.25;3.20;;;;;;;17.26;22.99;99107.72;10312890;28;20058;-72
2021/04/27 17:47:07;;;;;;;5.05;2.58;;;;;;;17.06;23.62;99098.63;10304748;28;20050;-72
2021/04/27 17:52:09;;;;;;;12.00;7.78;;;;;;;17.00;25.72;99107.47;10305789;28;20124;-72
2021/04/27 17:57:11;;;;;;;13.27;9.10;;;;;;;17.01;25.72;99118.03;10310823;28;20054;-71
2021/04/27 18:02:15;;;;;;;5.78;3.85;;;;;;;16.94;25.25;99107.22;10307657;28;20058;-71
2021/04/27 18:07:19;;;;;;;6.13;3.80;;;;;;;16.96;25.49;99121.31;10307644;28;20114;-73
2021/04/27 18:12:23;;;;;;;7.45;3.03;;;;;;;16.86;25.70;99115.38;10313074;28;20142;-73
2021/04/27 18:17:25;;;;;;;4.63;2.78;;;;;;;16.83;25.84;99122.97;10310578;28;20055;-72
2021/04/27 18:22:28;;;;;;;5.80;1.98;;;;;;;16.75;25.30;99113.19;10312456;28;20059;-72
2021/04/27 18:27:28;;;;;;;3.90;2.13;;;;;;;16.60;25.59;99108.72;10308538;28;20078;-71
2021/04/27 18:32:30;;;;;;;3.78;2.28;;;;;;;16.51;25.96;99120.59;10305760;28;20050;-71
2021/04/27 18:37:31;;;;;;;4.88;2.05;;;;;;;16.46;26.66;99130.25;10316029;28;20467;-71
2021/04/27 18:42:32;;;;;;;4.72;2.55;;;;;;;16.38;26.27;99120.47;10304902;28;20099;-70
2021/04/27 18:47:33;;;;;;;3.38;2.22;;;;;;;16.29;26.88;99118.88;10293215;28;20050;-70
2021/04/27 18:52:35;;;;;;;5.38;3.25;;;;;;;16.19;26.37;99122.69;10307866;28;20494;-72
2021/04/27 18:57:36;;;;;;;2.50;1.67;;;;;;;16.17;26.82;99124.75;10307995;28;20420;-72
2021/04/27 19:02:39;;;;;;;3.13;2.17;;;;;;;16.08;26.82;99124.03;10311707;28;20066;-72
2021/04/27 19:07:41;;;;;;;6.07;1.63;;;;;;;16.01;26.82;99135.69;10308647;28;20592;-72
2021/04/27 19:12:42;;;;;;;2.33;1.80;;;;;;;15.92;26.79;99132.25;10306987;28;20054;-72
2021/04/27 19:17:51;;;;;;;3.70;2.00;;;;;;;15.86;26.44;99141.88;10315343;28;20402;-73
2021/04/27 19:22:52;;;;;;;3.17;1.67;;;;;;;15.75;27.08;99147.69;10309323;28;20078;-73
2021/04/27 19:27:53;;;;;;;1.88;1.55;;;;;;;15.71;27.29;99155.25;10312374;28;20092;-72
2021/04/27 19:32:56;;;;;;;2.65;1.25;;;;;;;15.65;27.57;99141.75;10307971;28;20043;-73
2021/04/27 19:37:58;;;;;;;3.95;2.17;;;;;;;15.53;28.04;99144.06;10310279;28;20050;-71
2021/04/27 19:42:59;;;;;;;4.32;2.45;;;;;;;15.48;28.04;99136.56;10311151;28;20532;-73
2021/04/27 19:48:00;;;;;;;3.42;2.60;;;;;;;15.50;28.38;99149.78;10330741;28;20080;-71
2021/04/27 19:53:01;;;;;;;6.88;2.95;;;;;;;15.44;28.20;99148.66;10322885;28;20082;-72
2021/04/27 19:58:03;;;;;;;5.80;3.08;;;;;;;15.38;28.39;99149.38;10322975;28;20105;-72
2021/04/27 20:03:04;;;;;;;3.90;2.47;;;;;;;15.16;28.13;99138.53;10341676;28;20142;-72
2021/04/27 20:08:06;;;;;;;3.30;3.00;;;;;;;14.97;28.88;99149.75;10318354;28;20464;-71
2021/04/27 20:13:08;;;;;;;5.85;2.85;;;;;;;14.78;28.80;99133.09;10317081;28;20501;-72
2021/04/27 20:18:09;;;;;;;5.07;3.55;;;;;;;14.53;29.63;99132.38;10321905;28;20105;-72
2021/04/27 20:23:10;;;;;;;3.17;2.80;;;;;;;14.46;29.79;99131.44;10331748;28;20046;-72
2021/04/27 20:28:11;;;;;;;4.55;3.28;;;;;;;14.35;30.73;99146.03;10330290;23;20058;-69
2021/04/27 20:33:12;;;;;;;5.47;2.97;;;;;;;14.36;30.70;99154.94;10301854;28;22071;-69
2021/04/27 20:38:16;;;;;;;4.73;3.63;;;;;;;14.20;30.82;99137.09;10299779;28;20038;-68
2021/04/27 20:43:18;;;;;;;4.40;3.78;;;;;;;14.17;31.42;99158.84;10306780;28;20637;-69
2021/04/27 20:48:19;;;;;;;7.35;4.18;;;;;;;14.08;32.36;99150.88;10307864;28;20054;-68
2021/04/27 20:53:21;;;;;;;4.38;3.97;;;;;;;14.01;32.41;99157.91;10300145;28;20043;-68
2021/04/27 20:58:22;;;;;;;6.60;4.55;;;;;;;13.82;32.69;99172.50;10319917;28;20058;-68
2021/04/27 21:03:23;;;;;;;6.78;4.30;;;;;;;13.76;33.27;99163.31;10308131;28;20073;-67
2021/04/27 21:08:24;;;;;;;4.88;4.05;;;;;;;13.64;33.31;99170.03;10309989;28;20078;-67
2021/04/27 21:13:26;;;;;;;5.70;4.47;;;;;;;13.52;33.44;99171.41;10311687;28;20061;-66
2021/04/27 21:18:27;;;;;;;8.25;4.28;;;;;;;13.35;33.98;99160.72;10313278;28;20070;-68
2021/04/27 21:23:28;;;;;;;4.47;3.97;;;;;;;13.30;34.20;99168.38;10313018;28;20421;-68
2021/04/27 21:28:28;;;;;;;5.72;4.55;;;;;;;13.18;34.95;99167.03;10310271;28;20061;-68
2021/04/27 21:33:29;;;;;;;6.95;5.55;;;;;;;13.03;35.16;99158.84;10312525;28;20046;-68
2021/04/27 21:38:30;;;;;;;6.97;5.15;;;;;;;12.98;35.69;99170.03;10312516;28;20073;-67
2021/04/27 21:43:31;;;;;;;10.00;5.45;;;;;;;12.95;35.67;99159.66;10307864;28;20042;-68
2021/04/27 21:48:32;;;;;;;5.78;5.28;;;;;;;12.90;35.36;99159.34;10315048;28;20046;-67
2021/04/27 21:53:33;;;;;;;5.55;4.82;;;;;;;12.73;35.98;99164.66;10317275;28;20556;-68
2021/04/27 21:58:34;;;;;;;6.47;5.28;;;;;;;12.77;35.39;99175.00;10313455;28;20050;-68
2021/04/27 22:03:35;;;;;;;6.22;5.63;;;;;;;12.70;36.18;99174.81;10312618;28;20060;-68
2021/04/27 22:08:37;;;;;;;8.57;6.55;;;;;;;12.65;35.82;99175.31;10307743;28;20118;-69
2021/04/27 22:13:38;;;;;;;6.75;5.45;;;;;;;12.59;36.05;99164.47;10309664;28;20531;-68
2021/04/27 22:18:38;;;;;;;7.07;5.25;;;;;;;12.59;36.35;99175.97;10313646;28;20053;-67
2021/04/27 22:23:40;;;;;;;6.82;5.35;;;;;;;12.46;36.78;99167.56;10303627;28;20519;-69
2021/04/27 22:28:41;;;;;;;6.47;5.43;;;;;;;12.45;36.79;99177.44;10312728;28;20133;-69
2021/04/27 22:33:42;;;;;;;7.25;5.40;;;;;;;12.41;37.00;99177.91;10311210;28;20519;-69
2021/04/27 22:38:44;;;;;;;8.20;6.00;;;;;;;12.30;37.75;99171.88;10325492;28;20046;-67
2021/04/27 22:43:46;;;;;;;6.35;5.50;;;;;;;12.22;37.88;99163.84;10311744;28;20046;-68
2021/04/27 22:48:47;;;;;;;9.25;5.47;;;;;;;12.06;37.57;99158.44;10310677;28;20061;-68
2021/04/27 22:53:48;;;;;;;7.15;5.43;;;;;;;12.12;37.72;99169.31;10315052;28;20050;-68
2021/04/27 22:58:49;;;;;;;8.45;6.10;;;;;;;12.02;37.95;99166.78;10311336;28;20050;-68
2021/04/27 23:03:50;;;;;;;13.07;6.95;;;;;;;11.88;37.98;99156.66;10311465;28;20056;-69
2021/04/27 23:08:51;;;;;;;8.43;6.22;;;;;;;11.86;37.98;99153.31;10309793;28;20046;-67
2021/04/27 23:13:53;;;;;;;8.20;6.90;;;;;;;11.88;38.05;99166.50;10318539;28;20421;-69
2021/04/27 23:18:58;;;;;;;6.97;5.75;;;;;;;11.80;38.44;99160.13;10308773;28;20070;-68
2021/04/27 23:23:59;;;;;;;8.10;6.30;;;;;;;11.74;38.46;99154.56;10310389;28;20070;-68
2021/04/27 23:29:00;;;;;;;5.75;5.22;;;;;;;11.60;38.71;99148.00;10309982;28;20601;-68
2021/04/27 23:34:02;;;;;;;7.47;6.78;;;;;;;11.65;38.88;99151.88;10308966;28;20402;-68